Terminal Aerodrome Forecast
Issued by NWS St Louis, MO

Home | Current Version | Previous Version | Text Only | Print | Product List | Glossary On
Versions: 1 2 3 4 5 6 7 8 9 10 11 12 13 14 15 16 17 18 19 20 21 22 23 24 25 26 27
553
FTUS43 KLSX 100255 AAA
TAFSTL
TAF AMD
KSTL 100255Z 1003/1106 31012G20KT P6SM SCT050
     FM101600 30010KT P6SM BKN200
     FM102100 28007KT P6SM VCSH BKN080
     FM110100 35004KT 5SM -SHSN OVC025=

USA.gov is the U.S. government's official web portal to all federal, state and local government web resources and services.